Portland, New York
Current Conditions -  °F | °C
As of 12:53 AM on Wednesday 26 Nov 2014 (Local Time) from KDKK Reporting Station
Overcast Overcast  
Wind Chill: 29°   Ceiling: 2600
Heat Index: 35°   Visibility: 10mi
Dew Point: 26°   Wind: 7mph
Humidity: 70%   Direction: 270°W
Pressure: 30.18"   Gusts: NA
Location:  42.38°N, 79.47°W
Report Text: KDKK 260553Z AUTO 27006KT 10SM OVC026 02/M03 A3018 RMK AO2 SLP226 T00171033 10028 20017 58005
Loading
Personal Weather Stations






























Interactive Weather Map New forecast layout! Learn more

10-Day Weather Forecast

Advertisements
Track Severe Weather on mobile